createdAt,value
2022-08-16T00:00:04.208Z,99.06
2022-08-16T00:01:01.502Z,99.06
2022-08-16T00:02:01.506Z,98.96
2022-08-16T00:03:02.444Z,99.21
2022-08-16T00:04:01.418Z,99.37
2022-08-16T00:05:01.419Z,99.16
2022-08-16T00:06:01.408Z,99.06
2022-08-16T00:07:01.421Z,99.88
2022-08-16T00:08:01.393Z,99.78
2022-08-16T00:09:01.361Z,99.01
2022-08-16T00:10:01.349Z,99.31
2022-08-16T00:11:01.359Z,98.96
2022-08-16T00:12:01.326Z,99.62
2022-08-16T00:13:01.332Z,99.62
2022-08-16T00:14:01.319Z,99.68
2022-08-16T00:15:02.327Z,99.88
2022-08-16T00:16:01.297Z,99.99
2022-08-16T00:17:16.288Z,99.78
2022-08-16T00:18:02.276Z,99.47
2022-08-16T00:19:01.268Z,99.57
2022-08-16T00:20:01.244Z,99.99
2022-08-16T00:21:01.229Z,99.57
2022-08-16T00:22:03.006Z,99.57
2022-08-16T00:23:02.207Z,99.88
2022-08-16T00:24:04.827Z,99.88
2022-08-16T00:25:01.210Z,99.99
2022-08-16T00:26:34.835Z,99.57
2022-08-16T00:27:02.174Z,99.82
2022-08-16T00:28:01.166Z,99.78
2022-08-16T00:29:01.156Z,99.98
2022-08-16T00:30:19.138Z,99.88
2022-08-16T00:31:02.148Z,99.99
2022-08-16T00:32:05.562Z,99.98
2022-08-16T00:33:02.128Z,99.52
2022-08-16T00:34:01.089Z,99.57
2022-08-16T00:35:01.637Z,99.78
2022-08-16T00:36:01.063Z,99.27
2022-08-16T00:37:03.554Z,99.21
2022-08-16T00:38:01.051Z,99.21
2022-08-16T00:39:02.036Z,99.37
2022-08-16T00:40:01.072Z,99.06
2022-08-16T00:41:01.015Z,99.27
2022-08-16T00:42:01.004Z,99.37
2022-08-16T00:43:01.003Z,99.37
2022-08-16T00:44:01.008Z,99.27
2022-08-16T00:45:00.979Z,98.96
2022-08-16T00:46:32.960Z,99.27
2022-08-16T00:47:05.942Z,99.06
2022-08-16T00:48:00.935Z,99.16
2022-08-16T00:49:02.540Z,99.16
2022-08-16T00:50:00.929Z,99.27
2022-08-16T00:51:00.911Z,98.96
2022-08-16T00:52:00.898Z,98.96
2022-08-16T00:53:00.875Z,99.37
2022-08-16T00:54:00.872Z,99.21
2022-08-16T00:55:00.871Z,99.01
2022-08-16T00:56:00.857Z,99.27
2022-08-16T00:57:00.834Z,99.27
2022-08-16T00:58:00.999Z,99.16
2022-08-16T00:59:01.304Z,99.16
2022-08-16T01:00:01.181Z,99.57
2022-08-16T01:01:00.828Z,99.37
2022-08-16T01:02:00.771Z,99.37
2022-08-16T01:03:01.790Z,99.27
2022-08-16T01:04:00.764Z,99.16
2022-08-16T01:05:08.996Z,99.01
2022-08-16T01:06:40.606Z,99.41
2022-08-16T01:07:03.032Z,98.96
2022-08-16T01:08:00.723Z,98.60
2022-08-16T01:09:00.716Z,98.70
2022-08-16T01:10:00.687Z,98.70
2022-08-16T01:11:02.580Z,98.80
2022-08-16T01:12:00.664Z,98.70
2022-08-16T01:13:00.669Z,98.49
2022-08-16T01:14:00.640Z,98.60
2022-08-16T01:15:00.638Z,98.60
2022-08-16T01:16:00.650Z,98.80
2022-08-16T01:17:00.833Z,98.60
2022-08-16T01:18:00.611Z,98.80
2022-08-16T01:19:00.586Z,98.80
2022-08-16T01:20:00.672Z,98.60
2022-08-16T01:21:00.565Z,98.60
2022-08-16T01:22:58.842Z,98.60
2022-08-16T01:23:01.961Z,98.80
2022-08-16T01:24:01.502Z,98.90
2022-08-16T01:25:00.515Z,98.49
2022-08-16T01:26:34.209Z,98.29
2022-08-16T01:27:04.062Z,98.70
2022-08-16T01:28:00.478Z,98.49
2022-08-16T01:29:00.478Z,98.70
2022-08-16T01:30:00.473Z,98.60
2022-08-16T01:31:00.446Z,99.01
2022-08-16T01:32:00.463Z,98.49
2022-08-16T01:33:02.462Z,98.60
2022-08-16T01:34:01.509Z,98.49
2022-08-16T01:35:00.416Z,98.49
2022-08-16T01:36:00.408Z,98.45
2022-08-16T01:37:00.393Z,98.80
2022-08-16T01:38:00.380Z,98.80
2022-08-16T01:39:00.355Z,98.80
2022-08-16T01:40:00.404Z,99.11
2022-08-16T01:41:02.335Z,99.01
2022-08-16T01:42:00.324Z,98.60
2022-08-16T01:43:00.321Z,98.39
2022-08-16T01:44:01.093Z,98.49
2022-08-16T01:45:00.291Z,98.60
2022-08-16T01:46:00.286Z,98.85
2022-08-16T01:47:01.301Z,98.33
2022-08-16T01:48:00.266Z,99.05
2022-08-16T01:49:00.251Z,98.85
2022-08-16T01:50:42.605Z,99.01
2022-08-16T01:51:09.423Z,98.65
2022-08-16T01:52:01.213Z,98.33
2022-08-16T01:53:00.225Z,99.56
2022-08-16T01:54:00.185Z,99.31
2022-08-16T01:55:00.191Z,98.90
2022-08-16T01:56:00.200Z,99.21
2022-08-16T01:57:00.169Z,99.41
2022-08-16T01:58:00.159Z,99.46
2022-08-16T01:59:00.173Z,98.90
2022-08-16T02:00:00.169Z,98.70
2022-08-16T02:01:00.128Z,98.33
2022-08-16T02:02:00.596Z,99.01
2022-08-16T02:03:00.088Z,98.70
2022-08-16T02:04:10.326Z,98.85
2022-08-16T02:05:01.108Z,98.85
2022-08-16T02:06:00.050Z,98.54
2022-08-16T02:07:00.046Z,98.54
2022-08-16T02:08:00.033Z,98.74
2022-08-16T02:09:00.029Z,98.29
2022-08-16T02:10:02.147Z,98.54
2022-08-16T02:11:00.012Z,98.44
2022-08-16T02:11:59.995Z,98.85
2022-08-16T02:13:01.141Z,98.74
2022-08-16T02:13:59.983Z,98.85
2022-08-16T02:14:59.986Z,98.95
2022-08-16T02:15:59.946Z,98.54
2022-08-16T02:16:59.961Z,98.65
2022-08-16T02:18:01.253Z,97.66
2022-08-16T02:18:59.928Z,97.30
2022-08-16T02:20:00.878Z,97.36
2022-08-16T02:20:59.900Z,97.50
2022-08-16T02:22:08.332Z,97.46
2022-08-16T02:23:01.826Z,98.07
2022-08-16T02:24:00.873Z,97.97
2022-08-16T02:24:59.838Z,98.28
2022-08-16T02:26:00.002Z,98.07
2022-08-16T02:26:59.817Z,98.18
2022-08-16T02:27:59.883Z,97.97
2022-08-16T02:28:59.811Z,98.07
2022-08-16T02:30:05.339Z,97.87
2022-08-16T02:31:00.775Z,97.87
2022-08-16T02:32:03.930Z,98.28
2022-08-16T02:32:59.761Z,98.28
2022-08-16T02:33:59.745Z,98.43
2022-08-16T02:35:00.811Z,98.63
2022-08-16T02:36:00.201Z,99.15
2022-08-16T02:36:59.716Z,98.83
2022-08-16T02:38:01.709Z,98.83
2022-08-16T02:39:00.691Z,98.43
2022-08-16T02:39:59.732Z,98.69
2022-08-16T02:40:59.690Z,98.79
2022-08-16T02:41:59.666Z,98.83
2022-08-16T02:42:59.651Z,98.79
2022-08-16T02:43:59.659Z,98.12
2022-08-16T02:44:59.808Z,98.02
2022-08-16T02:45:59.632Z,98.63
2022-08-16T02:46:59.600Z,98.02
2022-08-16T02:48:01.087Z,98.12
2022-08-16T02:49:00.576Z,98.22
2022-08-16T02:50:53.901Z,98.63
2022-08-16T02:51:06.268Z,98.74
2022-08-16T02:52:00.564Z,98.33
2022-08-16T02:52:59.535Z,98.12
2022-08-16T02:53:59.526Z,98.22
2022-08-16T02:54:59.512Z,98.12
2022-08-16T02:56:00.549Z,98.12
2022-08-16T02:56:59.591Z,98.53
2022-08-16T02:57:59.485Z,98.74
2022-08-16T02:58:59.468Z,98.12
2022-08-16T02:59:59.457Z,98.53
2022-08-16T03:00:59.515Z,98.74
2022-08-16T03:01:59.491Z,98.12
2022-08-16T03:02:59.424Z,98.43
2022-08-16T03:04:39.667Z,98.22
2022-08-16T03:05:00.408Z,98.53
2022-08-16T03:05:59.384Z,98.43
2022-08-16T03:06:59.452Z,98.33
2022-08-16T03:07:59.387Z,98.74
2022-08-16T03:08:59.983Z,98.02
2022-08-16T03:10:00.595Z,98.53
2022-08-16T03:10:59.507Z,98.33
2022-08-16T03:12:01.008Z,98.33
2022-08-16T03:12:59.636Z,98.78
2022-08-16T03:13:59.325Z,98.74
2022-08-16T03:14:59.293Z,98.22
2022-08-16T03:15:59.284Z,98.74
2022-08-16T03:17:00.860Z,98.53
2022-08-16T03:17:59.283Z,98.74
2022-08-16T03:18:59.258Z,97.81
2022-08-16T03:20:02.582Z,98.02
2022-08-16T03:20:59.215Z,98.43
2022-08-16T03:21:59.238Z,98.22
2022-08-16T03:22:59.206Z,98.47
2022-08-16T03:23:59.195Z,98.33
2022-08-16T03:25:01.181Z,97.91
2022-08-16T03:25:59.163Z,98.07
2022-08-16T03:26:59.184Z,98.07
2022-08-16T03:27:59.923Z,98.02
2022-08-16T03:28:59.217Z,98.02
2022-08-16T03:29:59.129Z,98.37
2022-08-16T03:30:59.138Z,98.74
2022-08-16T03:31:59.514Z,98.16
2022-08-16T03:32:59.081Z,98.33
2022-08-16T03:33:59.096Z,98.27
2022-08-16T03:34:59.073Z,98.02
2022-08-16T03:35:59.061Z,97.91
2022-08-16T03:37:00.039Z,97.50
2022-08-16T03:38:02.450Z,97.91
2022-08-16T03:38:59.022Z,97.71
2022-08-16T03:40:02.983Z,97.40
2022-08-16T03:40:59.012Z,97.30
2022-08-16T03:42:00.138Z,97.30
2022-08-16T03:43:19.012Z,97.96
2022-08-16T03:43:59.966Z,97.91
2022-08-16T03:45:03.976Z,97.40
2022-08-16T03:45:59.977Z,97.50
2022-08-16T03:46:58.929Z,97.50
2022-08-16T03:47:59.818Z,97.71
2022-08-16T03:48:58.924Z,97.55
2022-08-16T03:49:58.907Z,97.86
2022-08-16T03:50:59.928Z,97.91
2022-08-16T03:51:58.890Z,98.27
2022-08-16T03:53:04.215Z,97.96
2022-08-16T03:54:01.322Z,98.16
2022-08-16T03:54:59.418Z,98.47
2022-08-16T03:55:58.837Z,98.02
2022-08-16T03:56:59.066Z,98.12
2022-08-16T03:57:58.833Z,98.02
2022-08-16T03:58:58.824Z,97.96
2022-08-16T03:59:58.811Z,98.07
2022-08-16T04:00:59.467Z,98.37
2022-08-16T04:01:58.766Z,98.12
2022-08-16T04:02:58.762Z,98.02
2022-08-16T04:03:58.758Z,98.99
2022-08-16T04:04:58.729Z,98.53
2022-08-16T04:05:58.720Z,98.63
2022-08-16T04:06:58.732Z,98.99
2022-08-16T04:07:58.703Z,99.19
2022-08-16T04:08:58.717Z,98.37
2022-08-16T04:09:58.700Z,98.33
2022-08-16T04:10:58.677Z,98.43
2022-08-16T04:11:58.670Z,98.02
2022-08-16T04:13:04.713Z,98.22
2022-08-16T04:14:31.131Z,97.86
2022-08-16T04:14:59.627Z,97.96
2022-08-16T04:15:58.616Z,98.02
2022-08-16T04:16:58.615Z,98.02
2022-08-16T04:17:58.593Z,98.16
2022-08-16T04:19:02.762Z,98.22
2022-08-16T04:19:59.928Z,98.02
2022-08-16T04:20:58.563Z,98.22
2022-08-16T04:21:58.560Z,98.02
2022-08-16T04:22:58.541Z,98.02
2022-08-16T04:23:58.534Z,98.12
2022-08-16T04:24:59.308Z,98.22
2022-08-16T04:25:58.515Z,98.33
2022-08-16T04:26:58.509Z,98.22
2022-08-16T04:27:58.476Z,98.12
2022-08-16T04:29:16.761Z,98.12
2022-08-16T04:30:02.718Z,98.12
2022-08-16T04:30:58.438Z,98.12
2022-08-16T04:31:58.437Z,97.61
2022-08-16T04:32:58.429Z,98.22
2022-08-16T04:33:58.406Z,97.81
2022-08-16T04:35:00.214Z,98.12
2022-08-16T04:35:58.484Z,97.91
2022-08-16T04:36:58.376Z,97.61
2022-08-16T04:37:58.365Z,97.40
2022-08-16T04:38:58.350Z,97.46
2022-08-16T04:39:58.380Z,97.50
2022-08-16T04:40:58.372Z,97.50
2022-08-16T04:41:58.329Z,97.56
2022-08-16T04:42:58.310Z,97.81
2022-08-16T04:43:58.295Z,97.25
2022-08-16T04:44:58.435Z,96.95
2022-08-16T04:46:00.185Z,97.15
2022-08-16T04:47:02.366Z,96.54
2022-08-16T04:47:59.267Z,96.64
2022-08-16T04:48:58.268Z,96.54
2022-08-16T04:49:58.252Z,97.05
2022-08-16T04:50:58.229Z,96.64
2022-08-16T04:51:58.220Z,96.95
2022-08-16T04:52:58.199Z,96.74
2022-08-16T04:53:58.201Z,96.23
2022-08-16T04:54:58.182Z,97.05
2022-08-16T04:55:58.191Z,96.74
2022-08-16T04:56:58.180Z,96.54
2022-08-16T04:57:58.158Z,96.64
2022-08-16T04:58:58.141Z,96.64
2022-08-16T04:59:58.139Z,96.84
2022-08-16T05:00:58.123Z,97.46
2022-08-16T05:01:59.569Z,97.36
2022-08-16T05:02:58.765Z,97.05
2022-08-16T05:04:00.221Z,96.95
2022-08-16T05:04:58.068Z,97.87
2022-08-16T05:05:59.913Z,97.77
2022-08-16T05:06:59.049Z,97.87
2022-08-16T05:08:00.377Z,97.77
2022-08-16T05:08:58.026Z,97.97
2022-08-16T05:09:58.041Z,97.77
2022-08-16T05:10:58.826Z,97.46
2022-08-16T05:11:57.999Z,97.66
2022-08-16T05:12:57.993Z,97.05
2022-08-16T05:14:06.900Z,96.59
2022-08-16T05:15:02.518Z,95.59
2022-08-16T05:15:57.956Z,94.23
2022-08-16T05:16:57.943Z,92.00
2022-08-16T05:17:59.626Z,89.26
2022-08-16T05:18:58.446Z,88.98
2022-08-16T05:19:58.556Z,88.22
2022-08-16T05:21:01.691Z,85.17
2022-08-16T05:21:58.891Z,82.59
2022-08-16T05:22:57.889Z,82.04
2022-08-16T05:24:00.158Z,81.73
2022-08-16T05:24:57.845Z,81.93
2022-08-16T05:25:57.859Z,81.33
2022-08-16T05:26:57.832Z,83.60
2022-08-16T05:27:57.833Z,83.70
2022-08-16T05:28:57.846Z,84.68
2022-08-16T05:30:00.844Z,81.39
2022-08-16T05:30:58.807Z,80.44
2022-08-16T05:31:57.821Z,78.98
2022-08-16T05:32:57.768Z,78.23
2022-08-16T05:33:57.761Z,78.27
2022-08-16T05:34:57.747Z,78.84
2022-08-16T05:35:57.742Z,78.56
2022-08-16T05:36:58.836Z,77.45
2022-08-16T05:37:57.726Z,76.20
2022-08-16T05:38:57.700Z,76.03
2022-08-16T05:39:57.761Z,76.57
2022-08-16T05:41:00.264Z,77.79
2022-08-16T05:41:57.670Z,77.52
2022-08-16T05:42:57.683Z,78.44
2022-08-16T05:43:59.147Z,78.53
2022-08-16T05:44:57.701Z,77.62
2022-08-16T05:45:57.639Z,80.32
2022-08-16T05:46:57.613Z,79.00
2022-08-16T05:47:59.663Z,79.60
2022-08-16T05:49:03.775Z,78.59
2022-08-16T05:49:58.585Z,77.01
2022-08-16T05:50:57.565Z,77.21
2022-08-16T05:51:57.570Z,77.69
2022-08-16T05:52:57.556Z,79.92
2022-08-16T05:53:57.554Z,79.04
2022-08-16T05:55:00.912Z,77.72
2022-08-16T05:55:57.512Z,78.84
2022-08-16T05:56:57.496Z,79.90
2022-08-16T05:57:57.501Z,78.27
2022-08-16T05:58:57.504Z,79.18
2022-08-16T06:00:00.196Z,78.84
2022-08-16T06:00:57.462Z,78.84
2022-08-16T06:01:57.658Z,77.66
2022-08-16T06:02:57.431Z,79.04
2022-08-16T06:03:57.431Z,77.14
2022-08-16T06:04:57.426Z,77.89
2022-08-16T06:06:00.659Z,77.51
2022-08-16T06:06:57.779Z,76.36
2022-08-16T06:07:58.479Z,74.54
2022-08-16T06:08:57.371Z,74.54
2022-08-16T06:09:57.392Z,75.65
2022-08-16T06:11:05.696Z,74.88
2022-08-16T06:11:58.368Z,74.74
2022-08-16T06:12:57.356Z,75.79
2022-08-16T06:13:57.346Z,76.97
2022-08-16T06:14:57.302Z,76.32
2022-08-16T06:15:57.323Z,74.60
2022-08-16T06:16:57.300Z,76.23
2022-08-16T06:17:58.310Z,76.73
2022-08-16T06:18:57.277Z,77.24
2022-08-16T06:19:57.265Z,75.65
2022-08-16T06:20:57.253Z,74.67
2022-08-16T06:21:57.234Z,74.10
2022-08-16T06:23:03.616Z,75.68
2022-08-16T06:24:01.008Z,74.60
2022-08-16T06:24:57.193Z,74.51
2022-08-16T06:25:57.290Z,75.38
2022-08-16T06:26:57.738Z,76.90
2022-08-16T06:27:58.288Z,76.26
2022-08-16T06:28:57.157Z,75.28
2022-08-16T06:29:57.189Z,73.36
2022-08-16T06:30:57.145Z,75.38
2022-08-16T06:31:57.139Z,72.65
2022-08-16T06:32:57.125Z,71.64
2022-08-16T06:33:57.167Z,71.73
2022-08-16T06:35:02.313Z,71.80
2022-08-16T06:35:59.334Z,73.46
2022-08-16T06:36:59.487Z,71.64
2022-08-16T06:37:57.060Z,73.08
2022-08-16T06:38:57.069Z,73.12
2022-08-16T06:39:57.079Z,74.03
2022-08-16T06:40:57.020Z,73.59
2022-08-16T06:41:57.052Z,71.94
2022-08-16T06:42:57.677Z,74.33
2022-08-16T06:43:56.999Z,71.40
2022-08-16T06:44:56.980Z,73.59
2022-08-16T06:45:56.978Z,72.14
2022-08-16T06:46:56.969Z,72.14
2022-08-16T06:47:57.046Z,73.42
2022-08-16T06:48:57.075Z,72.31
2022-08-16T06:49:56.931Z,72.64
2022-08-16T06:50:56.910Z,73.66
2022-08-16T06:52:03.102Z,72.58
2022-08-16T06:53:00.212Z,71.94
2022-08-16T06:53:56.873Z,71.94
2022-08-16T06:54:56.886Z,71.26
2022-08-16T06:55:56.867Z,72.08
2022-08-16T06:56:56.870Z,73.35
2022-08-16T06:57:56.857Z,72.08
2022-08-16T06:58:56.842Z,73.19
2022-08-16T06:59:58.582Z,72.21
2022-08-16T07:00:58.138Z,69.82
2022-08-16T07:01:58.089Z,71.70
2022-08-16T07:02:56.975Z,70.05
2022-08-16T07:03:57.255Z,70.18
2022-08-16T07:04:56.832Z,72.34
2022-08-16T07:05:56.747Z,71.60
2022-08-16T07:06:56.757Z,71.09
2022-08-16T07:07:56.729Z,73.55
2022-08-16T07:08:56.834Z,71.91
2022-08-16T07:09:56.726Z,71.33
2022-08-16T07:10:56.695Z,71.44
2022-08-16T07:11:56.679Z,72.41
2022-08-16T07:13:03.435Z,71.50
2022-08-16T07:14:04.012Z,70.15
2022-08-16T07:15:00.012Z,70.26
2022-08-16T07:15:56.644Z,71.44
2022-08-16T07:16:57.817Z,71.30
2022-08-16T07:17:56.616Z,69.45
2022-08-16T07:19:01.580Z,70.73
2022-08-16T07:20:02.581Z,70.89
2022-08-16T07:21:01.623Z,69.28
2022-08-16T07:21:59.550Z,69.55
2022-08-16T07:22:58.964Z,68.04
2022-08-16T07:23:57.883Z,68.57
2022-08-16T07:24:57.538Z,68.37
2022-08-16T07:25:56.543Z,71.91
2022-08-16T07:26:56.521Z,68.01
2022-08-16T07:27:56.606Z,68.98
2022-08-16T07:28:56.517Z,69.18
2022-08-16T07:29:56.496Z,69.32
2022-08-16T07:30:56.484Z,69.21
2022-08-16T07:31:56.461Z,68.51
2022-08-16T07:32:56.478Z,69.25
2022-08-16T07:33:56.441Z,69.65
2022-08-16T07:34:56.445Z,69.92
2022-08-16T07:35:56.436Z,69.38
2022-08-16T07:36:58.325Z,69.82
2022-08-16T07:37:56.397Z,70.62
2022-08-16T07:38:56.391Z,68.41
2022-08-16T07:39:56.462Z,69.82
2022-08-16T07:41:01.309Z,70.39
2022-08-16T07:41:57.359Z,69.76
2022-08-16T07:42:56.354Z,68.31
2022-08-16T07:43:56.344Z,69.76
2022-08-16T07:44:57.101Z,67.58
2022-08-16T07:45:56.330Z,67.64
2022-08-16T07:46:56.546Z,68.51
2022-08-16T07:47:56.287Z,69.82
2022-08-16T07:48:56.292Z,68.11
2022-08-16T07:49:58.205Z,69.79
2022-08-16T07:50:59.277Z,68.21
2022-08-16T07:51:56.303Z,69.89
2022-08-16T07:52:56.255Z,69.99
2022-08-16T07:54:02.735Z,68.95
2022-08-16T07:54:57.222Z,68.21
2022-08-16T07:55:56.205Z,66.64
2022-08-16T07:56:56.205Z,68.24
2022-08-16T07:58:01.035Z,68.28
2022-08-16T07:58:57.820Z,69.21
2022-08-16T07:59:57.157Z,70.12
2022-08-16T08:00:56.248Z,69.72
2022-08-16T08:01:56.134Z,67.74
2022-08-16T08:02:57.260Z,69.12
2022-08-16T08:03:56.124Z,70.56
2022-08-16T08:04:56.110Z,69.92
2022-08-16T08:05:56.102Z,69.89
2022-08-16T08:06:56.105Z,70.42
2022-08-16T08:07:57.713Z,71.36
2022-08-16T08:08:59.410Z,69.72
2022-08-16T08:09:56.068Z,68.35
2022-08-16T08:10:56.038Z,69.52
2022-08-16T08:12:00.029Z,67.21
2022-08-16T08:12:56.023Z,68.82
2022-08-16T08:13:56.616Z,69.25
2022-08-16T08:14:56.028Z,68.15
2022-08-16T08:15:55.989Z,69.22
2022-08-16T08:16:55.982Z,67.04
2022-08-16T08:17:55.961Z,67.74
2022-08-16T08:19:01.194Z,68.02
2022-08-16T08:19:56.979Z,67.61
2022-08-16T08:20:59.560Z,67.08
2022-08-16T08:22:01.533Z,66.00
2022-08-16T08:23:00.830Z,67.74
2022-08-16T08:23:55.912Z,67.21
2022-08-16T08:24:59.062Z,67.31
2022-08-16T08:25:56.904Z,69.32
2022-08-16T08:26:55.872Z,69.25
2022-08-16T08:27:57.491Z,68.52
2022-08-16T08:29:00.980Z,67.65
2022-08-16T08:30:49.087Z,66.91
2022-08-16T08:31:02.407Z,66.35
2022-08-16T08:31:56.833Z,66.71
2022-08-16T08:33:01.947Z,66.58
2022-08-16T08:33:56.793Z,64.81
2022-08-16T08:34:55.810Z,66.67
2022-08-16T08:35:56.781Z,66.61
2022-08-16T08:36:55.761Z,67.74
2022-08-16T08:37:56.465Z,68.12
2022-08-16T08:38:55.734Z,67.24
2022-08-16T08:39:55.778Z,67.38
2022-08-16T08:40:55.783Z,67.11
2022-08-16T08:41:55.722Z,67.41
2022-08-16T08:42:57.864Z,67.74
2022-08-16T08:43:56.712Z,67.21
2022-08-16T08:44:55.688Z,67.31
2022-08-16T08:45:55.759Z,66.98
2022-08-16T08:47:00.568Z,66.35
2022-08-16T08:47:58.406Z,66.85
2022-08-16T08:48:59.700Z,66.78
2022-08-16T08:49:56.637Z,64.74
2022-08-16T08:50:55.623Z,66.21
2022-08-16T08:51:55.610Z,66.68
2022-08-16T08:52:55.666Z,64.01
2022-08-16T08:53:57.644Z,64.45
2022-08-16T08:54:55.564Z,64.34
2022-08-16T08:55:59.269Z,65.94
2022-08-16T08:56:55.552Z,66.71
2022-08-16T08:57:55.534Z,63.78
2022-08-16T08:58:59.127Z,63.31
2022-08-16T08:59:55.515Z,64.74
2022-08-16T09:00:55.528Z,66.58
2022-08-16T09:01:58.051Z,64.78
2022-08-16T09:02:55.655Z,65.42
2022-08-16T09:03:55.506Z,63.78
2022-08-16T09:04:55.450Z,63.35
2022-08-16T09:05:55.452Z,62.28
2022-08-16T09:06:55.446Z,63.45
2022-08-16T09:08:01.595Z,64.39
2022-08-16T09:08:56.412Z,63.32
2022-08-16T09:10:06.232Z,62.62
2022-08-16T09:10:58.899Z,60.99
2022-08-16T09:12:04.131Z,61.29
2022-08-16T09:12:56.362Z,62.66
2022-08-16T09:13:55.351Z,60.33
2022-08-16T09:14:55.347Z,60.11
2022-08-16T09:15:55.353Z,59.53
2022-08-16T09:17:01.329Z,60.06
2022-08-16T09:17:56.333Z,60.06
2022-08-16T09:18:58.589Z,60.72
2022-08-16T09:19:57.178Z,60.02
2022-08-16T09:20:58.885Z,60.96
2022-08-16T09:21:56.307Z,60.66
2022-08-16T09:22:55.376Z,59.72
2022-08-16T09:23:55.256Z,62.89
2022-08-16T09:25:09.586Z,60.16
2022-08-16T09:25:56.253Z,59.69
2022-08-16T09:26:55.233Z,60.16
2022-08-16T09:27:57.682Z,59.30
2022-08-16T09:29:14.756Z,59.89
2022-08-16T09:30:00.042Z,59.65
2022-08-16T09:30:55.223Z,60.85
2022-08-16T09:31:55.181Z,61.55
2022-08-16T09:32:55.160Z,60.02
2022-08-16T09:33:55.189Z,59.75
2022-08-16T09:34:58.612Z,60.25
2022-08-16T09:35:55.146Z,59.28
2022-08-16T09:36:55.139Z,60.31
2022-08-16T09:38:00.980Z,60.98
2022-08-16T09:38:59.837Z,60.22
2022-08-16T09:39:55.145Z,60.36
2022-08-16T09:40:55.120Z,57.64
2022-08-16T09:41:55.070Z,56.29
2022-08-16T09:42:56.532Z,57.62
2022-08-16T09:43:59.132Z,58.22
2022-08-16T09:45:11.552Z,56.82
2022-08-16T09:45:56.051Z,57.32
2022-08-16T09:46:57.790Z,57.02
2022-08-16T09:47:56.766Z,55.82
2022-08-16T09:48:55.914Z,58.05
2022-08-16T09:49:54.993Z,57.82
2022-08-16T09:50:56.127Z,56.87
2022-08-16T09:51:55.604Z,57.35
2022-08-16T09:52:55.724Z,57.75
2022-08-16T09:53:55.175Z,57.45
2022-08-16T09:54:54.927Z,57.55
2022-08-16T09:55:56.864Z,56.85
2022-08-16T09:56:54.923Z,57.35
2022-08-16T09:57:54.922Z,56.72
2022-08-16T09:59:03.562Z,56.52
2022-08-16T09:59:56.430Z,57.39
2022-08-16T10:00:54.865Z,57.14
2022-08-16T10:01:54.908Z,55.36
2022-08-16T10:02:55.189Z,56.57
2022-08-16T10:04:01.524Z,55.34
2022-08-16T10:04:55.951Z,56.11
2022-08-16T10:05:54.844Z,58.83
2022-08-16T10:06:54.865Z,54.71
2022-08-16T10:07:55.907Z,54.57
2022-08-16T10:09:05.962Z,57.09
2022-08-16T10:09:56.438Z,56.68
2022-08-16T10:10:54.777Z,58.40
2022-08-16T10:11:54.768Z,55.26
2022-08-16T10:12:55.768Z,56.74
2022-08-16T10:13:54.736Z,56.51
2022-08-16T10:14:54.736Z,55.19
2022-08-16T10:15:55.690Z,56.79
2022-08-16T10:16:59.963Z,54.57
2022-08-16T10:17:59.954Z,54.34
2022-08-16T10:19:01.604Z,57.15
2022-08-16T10:19:56.131Z,57.17
2022-08-16T10:20:54.683Z,53.78
2022-08-16T10:21:56.448Z,54.08
2022-08-16T10:23:02.061Z,54.61
2022-08-16T10:23:55.642Z,55.68
2022-08-16T10:24:55.595Z,54.01
2022-08-16T10:27:16.310Z,56.13
2022-08-16T10:27:17.978Z,55.08
2022-08-16T10:28:01.247Z,55.98
2022-08-16T10:28:55.574Z,55.05
2022-08-16T10:29:59.437Z,55.08
2022-08-16T10:30:58.874Z,56.12
2022-08-16T10:31:54.543Z,54.50
2022-08-16T10:32:54.541Z,53.98
2022-08-16T10:33:54.538Z,52.00
2022-08-16T10:34:54.504Z,52.12
2022-08-16T10:35:54.508Z,53.78
2022-08-16T10:36:54.626Z,54.21
2022-08-16T10:37:54.477Z,51.84
2022-08-16T10:38:54.487Z,53.96
2022-08-16T10:39:55.752Z,54.11
2022-08-16T10:40:54.465Z,54.91
2022-08-16T10:41:54.436Z,54.11
2022-08-16T10:42:54.429Z,55.24
2022-08-16T10:43:54.398Z,55.51
2022-08-16T10:44:55.037Z,55.76
2022-08-16T10:45:59.769Z,55.23
2022-08-16T10:46:55.384Z,55.67
2022-08-16T10:48:03.069Z,53.83
2022-08-16T10:48:56.096Z,53.83
2022-08-16T10:49:54.369Z,54.68
2022-08-16T10:50:54.340Z,54.11
2022-08-16T10:52:01.277Z,53.91
2022-08-16T10:52:58.672Z,54.65
2022-08-16T10:53:54.301Z,53.16
2022-08-16T10:55:57.493Z,53.31
2022-08-16T10:56:56.395Z,54.24
2022-08-16T10:57:54.253Z,53.64
2022-08-16T10:58:54.254Z,54.08
2022-08-16T10:59:57.784Z,53.66
2022-08-16T11:00:57.483Z,51.79
2022-08-16T11:02:57.956Z,52.14
2022-08-16T11:03:57.377Z,53.91
2022-08-16T11:05:09.828Z,51.77
2022-08-16T11:06:03.242Z,52.32
2022-08-16T11:07:54.198Z,52.32
2022-08-16T11:07:55.418Z,53.09
2022-08-16T11:09:55.344Z,54.03
2022-08-16T11:11:05.273Z,51.65
2022-08-16T11:12:13.783Z,53.09
2022-08-16T11:12:55.378Z,53.26
2022-08-16T11:13:58.868Z,53.63
2022-08-16T11:15:55.916Z,53.63
2022-08-16T11:17:02.614Z,53.48
2022-08-16T11:19:06.002Z,52.34
2022-08-16T11:20:41.120Z,53.11
2022-08-16T11:20:55.011Z,51.72
2022-08-16T11:22:55.003Z,50.98
2022-08-16T11:23:58.230Z,52.31
2022-08-16T11:26:06.476Z,52.98
2022-08-16T11:27:54.949Z,53.16
2022-08-16T11:29:55.657Z,51.62
2022-08-16T11:30:57.269Z,48.94
2022-08-16T11:31:54.563Z,47.36
2022-08-16T11:32:53.889Z,48.57
2022-08-16T11:33:53.883Z,50.48
2022-08-16T11:35:13.419Z,50.36
2022-08-16T11:37:01.161Z,51.12
2022-08-16T11:38:47.665Z,48.77
2022-08-16T11:38:57.543Z,49.69
2022-08-16T11:39:59.709Z,50.88
2022-08-16T11:40:54.807Z,47.78
2022-08-16T11:41:53.807Z,48.57
2022-08-16T11:42:53.791Z,47.46
2022-08-16T11:43:53.762Z,47.06
2022-08-16T11:44:56.903Z,48.65
2022-08-16T11:45:54.618Z,48.92
2022-08-16T11:46:53.812Z,48.40
2022-08-16T11:47:53.837Z,46.50
2022-08-16T11:48:53.721Z,48.21
2022-08-16T11:49:53.703Z,47.56
2022-08-16T11:50:53.696Z,43.48
2022-08-16T11:51:53.682Z,46.94
2022-08-16T11:52:53.680Z,47.81
2022-08-16T11:53:54.555Z,45.83
2022-08-16T11:54:53.939Z,46.05
2022-08-16T11:55:54.844Z,47.83
2022-08-16T11:56:57.505Z,44.76
2022-08-16T11:57:56.378Z,47.36
2022-08-16T11:58:56.814Z,46.77
2022-08-16T11:59:53.721Z,46.67
2022-08-16T12:00:53.787Z,49.42
2022-08-16T12:01:54.985Z,46.62
2022-08-16T12:02:53.580Z,47.19
2022-08-16T12:03:53.605Z,47.02
2022-08-16T12:04:53.542Z,46.60
2022-08-16T12:05:54.341Z,46.72
2022-08-16T12:06:54.478Z,46.42
2022-08-16T12:07:53.527Z,47.49
2022-08-16T12:08:53.499Z,45.29
2022-08-16T12:09:53.541Z,43.91
2022-08-16T12:10:53.497Z,44.60
2022-08-16T12:11:53.546Z,45.71
2022-08-16T12:12:53.615Z,44.96
2022-08-16T12:13:53.452Z,45.57
2022-08-16T12:15:00.327Z,47.46
2022-08-16T12:15:54.419Z,46.33
2022-08-16T12:16:55.534Z,45.71
2022-08-16T12:17:53.394Z,45.90
2022-08-16T12:18:53.387Z,46.67
2022-08-16T12:19:53.419Z,44.92
2022-08-16T12:20:55.293Z,44.23
2022-08-16T12:21:58.692Z,45.61
2022-08-16T12:22:54.355Z,45.63
2022-08-16T12:23:53.344Z,47.24
2022-08-16T12:24:53.331Z,45.45
2022-08-16T12:25:53.309Z,47.39
2022-08-16T12:26:53.307Z,44.18
2022-08-16T12:27:53.304Z,44.90
2022-08-16T12:28:54.711Z,43.02
2022-08-16T12:29:53.292Z,44.64
2022-08-16T12:30:53.272Z,43.75
2022-08-16T12:32:00.520Z,44.24
2022-08-16T12:32:56.383Z,44.24
2022-08-16T12:33:54.298Z,45.51
2022-08-16T12:34:53.297Z,45.81
2022-08-16T12:35:53.206Z,45.68
2022-08-16T12:36:53.192Z,44.70
2022-08-16T12:37:55.460Z,45.16
2022-08-16T12:38:53.283Z,45.68
2022-08-16T12:39:53.203Z,44.17
2022-08-16T12:40:57.216Z,44.64
2022-08-16T12:41:53.141Z,44.10
2022-08-16T12:42:53.671Z,42.44
2022-08-16T12:43:53.122Z,44.23
2022-08-16T12:44:53.119Z,44.20
2022-08-16T12:45:53.105Z,43.02
2022-08-16T12:46:53.090Z,44.32
2022-08-16T12:48:04.934Z,43.91
2022-08-16T12:48:54.084Z,44.52
2022-08-16T12:49:53.061Z,45.01
2022-08-16T12:50:53.047Z,45.68
2022-08-16T12:51:59.731Z,43.31
2022-08-16T12:52:54.414Z,42.82
2022-08-16T12:53:53.007Z,42.72
2022-08-16T12:54:54.921Z,44.20
2022-08-16T12:55:53.025Z,42.43
2022-08-16T12:56:52.980Z,43.24
2022-08-16T12:57:58.110Z,43.71
2022-08-16T12:58:55.834Z,44.40
2022-08-16T12:59:53.895Z,44.10
2022-08-16T13:00:52.996Z,44.09
2022-08-16T13:01:58.212Z,42.60